Time;durP1;ratioP1;P1;durP2;ratioP2;P2;SDS_P1;SDS_P2;PMS_P1;PMS_P2;Temp;Humidity;BMP_temperature;BMP_pressure;BME280_temperature;BME280_humidity;BME280_pressure;Samples;Min_cycle;Max_cycle;Signal;HPM_P1;HPM_P2
2021/03/30 00:00:55;;;;;;;294.98;266.90;;;9.30;99.90;;;;;;5088702;28;20223;-74
2021/03/30 00:03:22;;;;;;;299.38;271.10;;;9.30;99.90;;;;;;5100169;28;20243;-74
2021/03/30 00:05:48;;;;;;;339.17;309.45;;;9.30;99.90;;;;;;5098546;28;20231;-74
2021/03/30 00:08:15;;;;;;;346.70;317.02;;;9.20;99.90;;;;;;5089926;28;20205;-74
2021/03/30 00:10:44;;;;;;;346.55;316.27;;;9.20;99.90;;;;;;5088119;28;20262;-74
2021/03/30 00:13:11;;;;;;;328.30;297.85;;;9.10;99.90;;;;;;5094164;28;20283;-74
2021/03/30 00:15:38;;;;;;;311.77;284.10;;;9.10;99.90;;;;;;5092418;28;20204;-74
2021/03/30 00:18:04;;;;;;;318.73;291.40;;;9.00;99.90;;;;;;5098358;28;20200;-73
2021/03/30 00:20:31;;;;;;;327.20;297.60;;;9.00;99.90;;;;;;5091477;28;20204;-74
2021/03/30 00:22:58;;;;;;;332.52;303.13;;;9.00;99.90;;;;;;5091343;28;20262;-74
2021/03/30 00:25:24;;;;;;;318.63;289.88;;;9.00;99.90;;;;;;5086371;28;20228;-73
2021/03/30 00:27:51;;;;;;;335.67;305.50;;;8.90;99.90;;;;;;5090845;28;20208;-74
2021/03/30 00:30:20;;;;;;;272.55;245.60;;;8.90;99.90;;;;;;5087434;28;20200;-72
2021/03/30 00:32:46;;;;;;;312.27;284.08;;;8.80;99.90;;;;;;5086956;28;20673;-73
2021/03/30 00:35:13;;;;;;;321.10;291.23;;;8.80;99.90;;;;;;5087052;28;20204;-73
2021/03/30 00:37:39;;;;;;;306.08;278.98;;;8.70;99.90;;;;;;5091445;28;20204;-73
2021/03/30 00:40:08;;;;;;;317.95;289.05;;;8.70;99.90;;;;;;5097860;28;20204;-73
2021/03/30 00:42:37;;;;;;;296.20;269.05;;;8.70;99.90;;;;;;5094161;28;20209;-73
2021/03/30 00:45:05;;;;;;;321.95;292.48;;;8.60;99.90;;;;;;5086300;28;20232;-73
2021/03/30 00:47:33;;;;;;;306.23;278.33;;;8.60;99.90;;;;;;5090107;28;20200;-73
2021/03/30 00:50:00;;;;;;;307.23;279.98;;;8.50;99.90;;;;;;5085984;28;20227;-73
2021/03/30 00:52:28;;;;;;;306.52;277.85;;;8.50;99.90;;;;;;5085204;28;20205;-73
2021/03/30 00:54:55;;;;;;;303.20;277.13;;;8.50;99.90;;;;;;5086073;28;20196;-73
2021/03/30 00:57:21;;;;;;;291.83;263.88;;;8.40;99.90;;;;;;5087223;28;20205;-73
2021/03/30 00:59:48;;;;;;;312.45;283.95;;;8.40;99.90;;;;;;5086567;28;20208;-73
2021/03/30 01:02:14;;;;;;;248.63;222.85;;;8.30;99.90;;;;;;5094217;28;20219;-73
2021/03/30 01:04:42;;;;;;;304.95;275.77;;;8.30;99.90;;;;;;5086129;28;20228;-73
2021/03/30 01:07:08;;;;;;;250.00;224.82;;;8.30;99.90;;;;;;5086843;28;20224;-73
2021/03/30 01:09:44;;;;;;;257.00;230.77;;;8.30;99.90;;;;;;5090381;28;20200;-73
2021/03/30 01:12:33;;;;;;;283.98;255.77;;;8.30;99.90;;;;;;5085595;28;20204;-73
2021/03/30 01:15:11;;;;;;;290.17;263.02;;;8.30;99.90;;;;;;5105066;28;20220;-73
2021/03/30 01:17:43;;;;;;;301.92;274.20;;;8.20;99.90;;;;;;5093227;28;20221;-73
2021/03/30 01:20:45;;;;;;;280.38;253.00;;;8.20;99.90;;;;;;5086293;28;20200;-73
2021/03/30 01:23:34;;;;;;;281.75;254.82;;;8.20;99.90;;;;;;5089978;28;20666;-73
2021/03/30 01:26:17;;;;;;;246.23;217.45;;;8.10;99.90;;;;;;5086147;28;20236;-73
2021/03/30 01:28:58;;;;;;;289.83;262.02;;;8.10;99.90;;;;;;5093243;28;20204;-73
2021/03/30 01:31:27;;;;;;;274.90;247.93;;;8.10;99.90;;;;;;5086286;28;20606;-73
2021/03/30 01:33:56;;;;;;;304.65;275.08;;;8.10;99.90;;;;;;5092203;28;20211;-73
2021/03/30 01:36:24;;;;;;;298.42;268.42;;;8.10;99.90;;;;;;5085808;28;20204;-73
2021/03/30 01:38:51;;;;;;;296.67;268.00;;;8.00;99.90;;;;;;5085517;28;20208;-73
2021/03/30 01:41:23;;;;;;;274.45;246.60;;;8.00;99.90;;;;;;5085673;28;20214;-73
2021/03/30 01:43:50;;;;;;;234.93;209.77;;;8.00;99.90;;;;;;5085312;28;20207;-73
2021/03/30 01:46:17;;;;;;;234.57;205.38;;;7.90;99.90;;;;;;5085439;28;20205;-73
2021/03/30 01:48:46;;;;;;;234.75;202.15;;;7.90;99.90;;;;;;5084275;28;20262;-73
2021/03/30 01:51:15;;;;;;;250.80;216.35;;;7.90;99.90;;;;;;5091508;28;20204;-73
2021/03/30 01:53:42;;;;;;;271.65;242.70;;;7.90;99.90;;;;;;5095310;28;20219;-73
2021/03/30 01:56:10;;;;;;;256.80;231.10;;;7.90;99.90;;;;;;5085940;28;20204;-73
2021/03/30 01:58:38;;;;;;;237.82;212.90;;;7.90;99.90;;;;;;5096658;28;20688;-73
2021/03/30 02:01:05;;;;;;;288.00;259.60;;;7.80;99.90;;;;;;5090121;28;20200;-74
2021/03/30 02:03:32;;;;;;;283.98;255.20;;;7.70;99.90;;;;;;5090590;28;20240;-74
2021/03/30 02:06:01;;;;;;;222.25;197.20;;;7.70;99.90;;;;;;5092405;28;20251;-74
2021/03/30 02:08:30;;;;;;;280.42;252.52;;;7.70;99.90;;;;;;5094838;28;20215;-74
2021/03/30 02:10:57;;;;;;;235.15;209.80;;;7.70;99.90;;;;;;5088544;28;20199;-74
2021/03/30 02:13:28;;;;;;;221.30;196.80;;;7.70;99.90;;;;;;5089142;28;20197;-74
2021/03/30 02:15:57;;;;;;;257.88;231.57;;;7.60;99.90;;;;;;5089812;28;20256;-74
2021/03/30 02:18:28;;;;;;;232.63;203.95;;;7.60;99.90;;;;;;5091416;28;20204;-74
2021/03/30 02:21:01;;;;;;;228.05;200.82;;;7.60;99.90;;;;;;5085454;28;20205;-74
2021/03/30 02:23:36;;;;;;;208.48;182.75;;;7.60;99.90;;;;;;5085423;28;20206;-74
2021/03/30 02:26:07;;;;;;;208.13;182.43;;;7.60;99.90;;;;;;5096646;28;20300;-74
2021/03/30 02:28:38;;;;;;;261.23;236.20;;;7.60;99.90;;;;;;5090242;28;20219;-74
2021/03/30 02:31:06;;;;;;;270.02;244.55;;;7.50;99.90;;;;;;5085710;28;20197;-74
2021/03/30 02:33:34;;;;;;;270.90;244.60;;;7.40;99.90;;;;;;5085311;28;20215;-74
2021/03/30 02:36:03;;;;;;;246.23;220.63;;;7.40;99.90;;;;;;5085230;28;20204;-74
2021/03/30 02:38:33;;;;;;;244.75;219.00;;;7.40;99.90;;;;;;5084633;28;20196;-74
2021/03/30 02:41:00;;;;;;;244.90;219.35;;;7.40;99.90;;;;;;5085372;28;20200;-74
2021/03/30 02:43:28;;;;;;;231.00;205.80;;;7.40;99.90;;;;;;5090659;28;20208;-74
2021/03/30 02:45:55;;;;;;;243.77;217.90;;;7.40;99.90;;;;;;5085757;28;20266;-74
2021/03/30 02:48:22;;;;;;;261.67;235.80;;;7.40;99.90;;;;;;5088562;28;20223;-74
2021/03/30 02:50:50;;;;;;;271.70;245.10;;;7.30;99.90;;;;;;5087090;28;20235;-73
2021/03/30 02:53:18;;;;;;;240.50;213.40;;;7.30;99.90;;;;;;5088671;28;20288;-74
2021/03/30 02:55:47;;;;;;;226.45;184.35;;;7.20;99.90;;;;;;5088982;28;20208;-73
2021/03/30 02:58:14;;;;;;;218.60;188.82;;;7.20;99.90;;;;;;5098607;28;20201;-74
2021/03/30 03:00:41;;;;;;;248.88;221.90;;;7.20;99.90;;;;;;5099669;28;20211;-73
2021/03/30 03:03:11;;;;;;;214.15;183.80;;;7.20;99.90;;;;;;5092278;28;20228;-73
2021/03/30 03:05:38;;;;;;;228.20;200.68;;;7.20;99.90;;;;;;5087859;28;20224;-74
2021/03/30 03:08:06;;;;;;;242.70;216.98;;;7.10;99.90;;;;;;5088738;28;20197;-74
2021/03/30 03:10:34;;;;;;;209.45;175.23;;;7.10;99.90;;;;;;5088410;28;20204;-74
2021/03/30 03:13:02;;;;;;;257.30;230.20;;;7.10;99.90;;;;;;5089391;28;20254;-73
2021/03/30 03:15:30;;;;;;;258.75;232.77;;;7.00;99.90;;;;;;5093776;28;20208;-74
2021/03/30 03:17:58;;;;;;;233.00;197.35;;;7.00;99.90;;;;;;5088926;28;20228;-74
2021/03/30 03:20:26;;;;;;;232.30;205.55;;;7.00;99.90;;;;;;5093024;28;20722;-73
2021/03/30 03:22:53;;;;;;;254.48;228.18;;;7.00;99.90;;;;;;5098819;28;20204;-74
2021/03/30 03:25:20;;;;;;;226.40;182.85;;;6.90;99.90;;;;;;5088707;28;20646;-73
2021/03/30 03:27:47;;;;;;;213.38;171.75;;;6.90;99.90;;;;;;5088695;28;20226;-73
2021/03/30 03:30:15;;;;;;;241.02;202.85;;;6.90;99.90;;;;;;5086327;28;20192;-73
2021/03/30 03:32:42;;;;;;;232.45;206.90;;;6.80;99.90;;;;;;5092911;28;20208;-73
2021/03/30 03:35:13;;;;;;;218.27;173.23;;;6.80;99.90;;;;;;5087899;28;20205;-73
2021/03/30 03:37:43;;;;;;;256.95;229.50;;;6.70;99.90;;;;;;5088879;28;20204;-72
2021/03/30 03:40:12;;;;;;;223.38;193.90;;;6.70;99.90;;;;;;5087636;28;20215;-73
2021/03/30 03:42:39;;;;;;;247.35;218.15;;;6.60;99.90;;;;;;5092149;28;20595;-72
2021/03/30 03:45:11;;;;;;;241.13;214.07;;;6.70;99.90;;;;;;5088747;28;20681;-72
2021/03/30 03:47:37;;;;;;;219.38;162.77;;;6.60;99.90;;;;;;5090363;28;20677;-73
2021/03/30 03:50:05;;;;;;;241.15;210.57;;;6.60;99.90;;;;;;5088200;28;20196;-73
2021/03/30 03:52:36;;;;;;;236.15;208.38;;;6.60;99.90;;;;;;5087268;28;20200;-73
2021/03/30 03:55:05;;;;;;;245.55;217.75;;;6.60;99.90;;;;;;5092772;28;20258;-73
2021/03/30 03:57:37;;;;;;;246.65;215.23;;;6.50;99.90;;;;;;5092254;28;20669;-73
2021/03/30 04:00:05;;;;;;;212.85;162.73;;;6.50;99.90;;;;;;5088772;28;20200;-73
2021/03/30 04:02:40;;;;;;;247.30;219.65;;;6.50;99.90;;;;;;5093474;28;20196;-74
2021/03/30 04:05:12;;;;;;;227.30;187.48;;;6.50;99.90;;;;;;5087634;28;20223;-73
2021/03/30 04:07:47;;;;;;;232.02;201.93;;;6.50;99.90;;;;;;5093646;28;20288;-73
2021/03/30 04:10:17;;;;;;;229.63;196.40;;;6.40;99.90;;;;;;5092531;28;20264;-73
2021/03/30 04:12:44;;;;;;;232.52;182.40;;;6.40;99.90;;;;;;5092479;28;20200;-73
2021/03/30 04:15:12;;;;;;;213.80;184.07;;;6.40;99.90;;;;;;5093742;28;20208;-73
2021/03/30 04:17:42;;;;;;;228.55;187.95;;;6.40;99.90;;;;;;5087018;28;20207;-73
2021/03/30 04:20:10;;;;;;;235.90;206.88;;;6.30;99.90;;;;;;5087316;28;20200;-73
2021/03/30 04:22:37;;;;;;;238.57;207.50;;;6.30;99.90;;;;;;5086464;28;20209;-73
2021/03/30 04:25:05;;;;;;;219.10;164.02;;;6.30;99.90;;;;;;5086889;28;20455;-73
2021/03/30 04:27:32;;;;;;;234.50;204.25;;;6.30;99.90;;;;;;5089054;28;20229;-73
2021/03/30 04:29:59;;;;;;;231.68;193.15;;;6.30;99.90;;;;;;5093668;28;20219;-73
2021/03/30 04:32:26;;;;;;;227.63;189.23;;;6.30;99.90;;;;;;5086961;28;20268;-73
2021/03/30 04:34:53;;;;;;;240.52;184.88;;;6.20;99.90;;;;;;5087280;28;20203;-73
2021/03/30 04:37:19;;;;;;;223.02;168.43;;;6.20;99.90;;;;;;5092266;28;20218;-73
2021/03/30 04:39:46;;;;;;;228.73;188.07;;;6.10;99.90;;;;;;5091716;28;20209;-73
2021/03/30 04:42:13;;;;;;;227.75;165.93;;;6.10;99.90;;;;;;5086614;28;20208;-72
2021/03/30 04:44:40;;;;;;;239.80;199.20;;;6.00;99.90;;;;;;5096253;28;20246;-74
2021/03/30 04:47:06;;;;;;;219.95;160.23;;;5.90;99.90;;;;;;5086196;28;20205;-73
2021/03/30 04:49:33;;;;;;;221.57;164.27;;;5.90;99.90;;;;;;5090418;28;20204;-73
2021/03/30 04:52:00;;;;;;;237.68;193.30;;;5.90;99.90;;;;;;5091851;28;20204;-73
2021/03/30 04:54:27;;;;;;;222.93;186.68;;;5.90;99.90;;;;;;5087596;28;20222;-73
2021/03/30 04:56:53;;;;;;;221.65;163.63;;;5.90;99.90;;;;;;5087469;28;20207;-73
2021/03/30 04:59:20;;;;;;;233.32;187.15;;;5.90;99.90;;;;;;5086432;28;20220;-73
2021/03/30 05:01:46;;;;;;;217.55;152.85;;;5.80;99.90;;;;;;5091415;28;20204;-73
2021/03/30 05:04:12;;;;;;;210.60;148.05;;;5.80;99.90;;;;;;5086023;28;20232;-73
2021/03/30 05:06:39;;;;;;;233.93;193.50;;;5.90;99.90;;;;;;5085981;28;20208;-72
2021/03/30 05:09:07;;;;;;;238.02;175.32;;;5.80;99.90;;;;;;5085066;28;20205;-72
2021/03/30 05:11:33;;;;;;;232.10;177.25;;;5.80;99.90;;;;;;5086147;28;20209;-72
2021/03/30 05:14:00;;;;;;;232.82;180.90;;;5.90;99.90;;;;;;5085885;28;20205;-72
2021/03/30 05:16:27;;;;;;;234.63;181.85;;;5.80;99.90;;;;;;5084842;28;20228;-72
2021/03/30 05:18:53;;;;;;;299.70;280.20;;;5.80;99.90;;;;;;5083874;28;20507;-72
2021/03/30 05:21:20;;;;;;;218.95;193.75;;;5.90;99.90;;;;;;5093880;28;20204;-72
2021/03/30 05:23:46;;;;;;;238.48;213.07;;;5.80;99.90;;;;;;5085922;28;20209;-72
2021/03/30 05:26:13;;;;;;;241.48;200.73;;;5.80;99.90;;;;;;5085327;28;20235;-72
2021/03/30 05:28:40;;;;;;;239.82;197.63;;;5.90;99.90;;;;;;5088678;28;20203;-72
2021/03/30 05:31:06;;;;;;;229.57;181.23;;;5.80;99.90;;;;;;5090758;28;20211;-72
2021/03/30 05:33:33;;;;;;;212.75;160.13;;;5.80;99.90;;;;;;5090932;28;20204;-72
2021/03/30 05:35:59;;;;;;;222.50;185.10;;;5.80;99.90;;;;;;5094784;28;20302;-72
2021/03/30 05:38:26;;;;;;;225.63;165.60;;;5.80;99.90;;;;;;5088760;28;20204;-73
2021/03/30 05:40:54;;;;;;;229.63;194.77;;;5.80;99.90;;;;;;5085097;28;20204;-73
2021/03/30 05:43:22;;;;;;;233.85;187.52;;;5.90;99.90;;;;;;5085404;28;20249;-73
2021/03/30 05:45:49;;;;;;;223.05;191.57;;;5.90;99.90;;;;;;5085174;28;20223;-73
2021/03/30 05:48:16;;;;;;;212.85;155.68;;;5.90;99.90;;;;;;5086002;28;20196;-72
2021/03/30 05:50:43;;;;;;;232.50;188.68;;;5.90;99.90;;;;;;5098251;28;20600;-72
2021/03/30 05:53:11;;;;;;;207.35;154.77;;;5.90;99.90;;;;;;5087460;28;20211;-72
2021/03/30 05:55:40;;;;;;;214.48;158.63;;;5.90;99.90;;;;;;5085137;28;20207;-72
2021/03/30 05:58:08;;;;;;;225.57;177.10;;;6.00;99.90;;;;;;5085113;28;20205;-72
2021/03/30 06:00:37;;;;;;;229.32;185.98;;;6.00;99.90;;;;;;5093508;28;20203;-72
2021/03/30 06:03:05;;;;;;;226.95;183.25;;;6.00;99.90;;;;;;5090469;28;20220;-73
2021/03/30 06:05:32;;;;;;;233.32;190.90;;;6.00;99.90;;;;;;5084629;28;20232;-73
2021/03/30 06:08:00;;;;;;;226.95;179.85;;;6.00;99.90;;;;;;5085961;28;20204;-73
2021/03/30 06:10:28;;;;;;;223.55;180.07;;;6.10;99.90;;;;;;5085484;28;20283;-73
2021/03/30 06:12:55;;;;;;;221.05;178.55;;;6.20;99.90;;;;;;5084848;28;20204;-73
2021/03/30 06:15:27;;;;;;;226.68;184.35;;;6.20;99.90;;;;;;5085610;28;20203;-74
2021/03/30 06:17:54;;;;;;;226.38;192.32;;;6.20;99.90;;;;;;5085365;28;20204;-73
2021/03/30 06:20:30;;;;;;;202.50;156.10;;;6.30;99.90;;;;;;5086812;28;20215;-73
2021/03/30 06:22:59;;;;;;;210.18;175.18;;;6.30;99.90;;;;;;5091374;28;20196;-73
2021/03/30 06:25:43;;;;;;;206.85;163.77;;;6.40;99.90;;;;;;5096480;28;20219;-73
2021/03/30 06:28:18;;;;;;;219.63;186.52;;;6.40;99.90;;;;;;5090139;28;20204;-75
2021/03/30 06:31:03;;;;;;;209.13;170.25;;;6.40;99.90;;;;;;5092242;28;20203;-73
2021/03/30 06:33:32;;;;;;;219.93;196.23;;;6.50;99.90;;;;;;5100911;28;20199;-73
2021/03/30 06:36:19;;;;;;;231.38;207.95;;;6.60;99.90;;;;;;5095608;28;20233;-72
2021/03/30 06:38:54;;;;;;;236.60;211.57;;;6.70;99.90;;;;;;5096957;28;20227;-72
2021/03/30 06:41:43;;;;;;;211.25;185.52;;;6.80;99.90;;;;;;5089180;28;20200;-72
2021/03/30 06:44:27;;;;;;;228.77;204.60;;;6.90;99.90;;;;;;5089206;28;20288;-74
2021/03/30 06:46:56;;;;;;;219.23;194.55;;;7.00;99.90;;;;;;5090841;28;20207;-72
2021/03/30 06:49:25;;;;;;;221.10;197.85;;;7.10;99.90;;;;;;5088797;28;20204;-72
2021/03/30 06:51:52;;;;;;;254.75;229.68;;;7.20;99.90;;;;;;5088747;28;20204;-73
2021/03/30 06:54:18;;;;;;;245.38;220.85;;;7.30;99.90;;;;;;5088510;28;20204;-73
2021/03/30 06:56:50;;;;;;;222.95;200.55;;;7.40;99.90;;;;;;5094132;28;20207;-73
2021/03/30 06:59:17;;;;;;;232.85;209.30;;;7.50;99.90;;;;;;5088900;28;20208;-73
2021/03/30 07:01:46;;;;;;;251.25;226.90;;;7.60;99.90;;;;;;5089210;28;20970;-73
2021/03/30 07:04:13;;;;;;;240.73;216.77;;;7.70;99.90;;;;;;5088338;28;20236;-73
2021/03/30 07:06:40;;;;;;;237.80;214.48;;;7.90;99.90;;;;;;5087956;28;20717;-73
2021/03/30 07:09:10;;;;;;;274.10;249.50;;;8.10;99.90;;;;;;5088701;28;20211;-73
2021/03/30 07:11:40;;;;;;;261.70;238.02;;;8.20;99.90;;;;;;5088449;28;20864;-73
2021/03/30 07:14:06;;;;;;;269.75;245.75;;;8.40;99.90;;;;;;5087910;28;20200;-73
2021/03/30 07:16:38;;;;;;;268.27;244.45;;;8.50;99.90;;;;;;5094498;28;20201;-72
2021/03/30 07:19:04;;;;;;;259.63;235.50;;;8.70;99.90;;;;;;5094777;28;20197;-73
2021/03/30 07:21:37;;;;;;;303.48;278.15;;;8.90;99.90;;;;;;5088063;28;20314;-73
2021/03/30 07:24:07;;;;;;;305.33;280.13;;;9.00;99.90;;;;;;5093513;28;20696;-73
2021/03/30 07:26:39;;;;;;;266.63;243.00;;;9.20;99.90;;;;;;5089252;28;20252;-73
2021/03/30 07:29:10;;;;;;;304.80;280.50;;;9.50;99.90;;;;;;5088191;28;20600;-73
2021/03/30 07:31:44;;;;;;;315.60;291.65;;;9.80;99.90;;;;;;5092093;28;20204;-73
2021/03/30 07:34:13;;;;;;;231.93;217.18;;;10.20;99.90;;;;;;5088200;28;20230;-73
2021/03/30 07:36:47;;;;;;;230.85;217.10;;;10.90;99.90;;;;;;5099918;28;20322;-73
2021/03/30 07:39:17;;;;;;;263.63;248.10;;;11.90;99.90;;;;;;5094392;28;20686;-73
2021/03/30 07:41:44;;;;;;;686.08;638.90;;;13.00;99.90;;;;;;5087748;28;20200;-73
2021/03/30 07:44:11;;;;;;;699.67;650.75;;;14.20;99.90;;;;;;5098857;28;20203;-73
2021/03/30 07:46:38;;;;;;;722.30;671.25;;;15.40;99.90;;;;;;5089084;28;20587;-73
2021/03/30 07:49:05;;;;;;;814.58;757.22;;;16.50;99.90;;;;;;5095993;28;20207;-74
2021/03/30 07:51:36;;;;;;;672.25;622.30;;;17.50;99.90;;;;;;5090634;28;20204;-73
2021/03/30 07:54:11;;;;;;;706.85;653.78;;;18.50;98.50;;;;;;5087636;28;20209;-73
2021/03/30 07:56:55;;;;;;;934.58;868.85;;;19.60;97.10;;;;;;5092654;28;20234;-73
2021/03/30 07:59:48;;;;;;;1061.18;985.88;;;20.80;94.90;;;;;;5092971;28;20208;-73
2021/03/30 08:02:20;;;;;;;1094.93;999.90;;;21.90;91.90;;;;;;5094502;28;20306;-73
2021/03/30 08:05:06;;;;;;;1112.55;999.90;;;22.70;90.30;;;;;;5092278;28;20241;-73
2021/03/30 08:07:46;;;;;;;1127.35;999.90;;;23.60;87.80;;;;;;5087365;28;20207;-73
2021/03/30 08:10:30;;;;;;;1308.40;999.90;;;24.30;81.50;;;;;;5091118;28;20452;-73
2021/03/30 08:13:27;;;;;;;1167.10;999.90;;;24.80;79.70;;;;;;5092124;28;20220;-73
2021/03/30 08:15:55;;;;;;;480.70;444.63;;;25.30;77.00;;;;;;5092327;28;20214;-73
2021/03/30 08:18:24;;;;;;;656.28;603.55;;;25.60;73.70;;;;;;5094679;28;20206;-74
2021/03/30 08:21:02;;;;;;;1164.70;999.90;;;26.00;72.00;;;;;;5092812;28;20265;-74
2021/03/30 08:23:29;;;;;;;1261.67;999.90;;;26.60;73.00;;;;;;5087335;28;20481;-74
2021/03/30 08:26:18;;;;;;;1189.88;999.90;;;27.10;70.30;;;;;;5091694;28;20554;-74
2021/03/30 08:28:59;;;;;;;1193.25;999.90;;;27.30;67.30;;;;;;5087019;28;20198;-74
2021/03/30 08:31:28;;;;;;;1183.57;999.90;;;27.50;65.50;;;;;;5092870;28;20211;-74
2021/03/30 08:33:57;;;;;;;1172.25;999.90;;;27.80;63.50;;;;;;5095582;28;20211;-74
2021/03/30 08:36:29;;;;;;;1169.32;999.90;;;27.90;63.50;;;;;;5086578;28;20199;-74
2021/03/30 08:38:58;;;;;;;1160.57;999.90;;;28.20;62.80;;;;;;5086016;28;20207;-74
2021/03/30 08:41:54;;;;;;;1155.85;999.90;;;28.60;62.00;;;;;;5089056;28;20202;-77
2021/03/30 08:44:28;;;;;;;1157.63;999.90;;;28.90;61.70;;;;;;5090248;28;20202;-75
2021/03/30 08:46:57;;;;;;;1155.05;999.90;;;29.30;59.30;;;;;;5086408;28;20214;-75
2021/03/30 08:49:39;;;;;;;1160.32;999.90;;;29.40;57.50;;;;;;5086241;28;20211;-76
2021/03/30 08:52:08;;;;;;;1154.22;999.90;;;29.30;56.70;;;;;;5084673;28;20200;-76
2021/03/30 08:54:37;;;;;;;1167.55;999.90;;;29.70;55.90;;;;;;5086238;28;20207;-77
2021/03/30 08:57:07;;;;;;;1149.78;999.90;;;29.90;57.20;;;;;;5086165;28;20217;-75
2021/03/30 08:59:35;;;;;;;1142.95;999.90;;;30.20;55.60;;;;;;5086131;28;20203;-75
2021/03/30 09:02:05;;;;;;;1150.43;999.90;;;30.80;56.40;;;;;;5095233;28;20211;-76
2021/03/30 09:04:34;;;;;;;1140.10;999.90;;;31.00;55.60;;;;;;5091083;28;20298;-76
2021/03/30 09:07:01;;;;;;;1127.32;999.90;;;31.10;51.90;;;;;;5091295;28;20216;-77
2021/03/30 09:09:33;;;;;;;1145.05;999.90;;;31.00;52.80;;;;;;5092272;28;20209;-75
2021/03/30 09:12:01;;;;;;;1136.85;999.90;;;31.10;53.10;;;;;;5089768;28;20258;-75
2021/03/30 09:14:27;;;;;;;1142.78;999.90;;;31.50;53.70;;;;;;5090994;28;20210;-76
2021/03/30 09:17:04;;;;;;;1128.57;999.90;;;31.80;51.90;;;;;;5098878;28;20206;-76
2021/03/30 09:19:34;;;;;;;1143.63;999.90;;;32.20;52.00;;;;;;5089284;28;20204;-76
2021/03/30 09:22:03;;;;;;;1140.70;999.90;;;32.20;49.80;;;;;;5091122;28;20206;-75
2021/03/30 09:24:44;;;;;;;1148.85;999.90;;;32.00;49.50;;;;;;5085755;28;20213;-75
2021/03/30 09:27:12;;;;;;;1146.95;999.90;;;31.90;50.90;;;;;;5085774;28;20214;-75
2021/03/30 09:29:39;;;;;;;1143.75;999.90;;;32.30;49.80;;;;;;5085486;28;20269;-75
2021/03/30 09:32:08;;;;;;;1137.13;999.90;;;32.60;50.20;;;;;;5085525;28;20211;-75
2021/03/30 09:34:38;;;;;;;1140.18;999.90;;;33.00;49.30;;;;;;5085590;28;20219;-75
2021/03/30 09:37:05;;;;;;;1135.85;999.90;;;33.30;47.60;;;;;;5088631;28;20202;-75
2021/03/30 09:39:35;;;;;;;1144.75;999.90;;;33.50;48.40;;;;;;5085450;28;20657;-75
2021/03/30 09:42:01;;;;;;;1138.30;999.90;;;33.90;48.50;;;;;;5085595;28;20211;-75
2021/03/30 09:44:34;;;;;;;1142.40;999.90;;;34.10;48.10;;;;;;5090711;28;20246;-75
2021/03/30 09:47:01;;;;;;;1145.30;999.90;;;34.40;46.70;;;;;;5088942;28;20224;-75
2021/03/30 09:49:29;;;;;;;1169.60;999.90;;;34.70;45.20;;;;;;5092279;28;20199;-75
2021/03/30 09:51:56;;;;;;;1167.15;999.90;;;34.70;45.70;;;;;;5091388;28;20198;-75
2021/03/30 09:54:28;;;;;;;1159.03;999.90;;;34.70;44.90;;;;;;5097241;28;20198;-75
2021/03/30 09:57:13;;;;;;;1153.43;999.90;;;35.00;44.70;;;;;;5091447;28;20201;-75
2021/03/30 09:59:44;;;;;;;1160.93;999.90;;;35.20;45.90;;;;;;5095002;28;20227;-75
2021/03/30 10:08:20;;;;;;;1159.80;999.90;;;35.60;43.00;;;;;;5108899;28;20206;-75
2021/03/30 10:10:48;;;;;;;1171.22;999.90;;;35.40;43.70;;;;;;5115750;28;20302;-75
2021/03/30 10:13:26;;;;;;;1188.82;999.90;;;35.50;42.80;;;;;;5103099;28;20222;-75
2021/03/30 10:15:54;;;;;;;1182.82;999.90;;;35.50;42.80;;;;;;5102876;28;20207;-76
2021/03/30 10:18:23;;;;;;;1178.07;999.90;;;35.70;43.50;;;;;;5102420;28;20208;-75
2021/03/30 10:20:50;;;;;;;1183.10;999.90;;;35.70;43.30;;;;;;5103080;28;20204;-75
2021/03/30 10:23:20;;;;;;;1170.00;999.90;;;35.50;41.70;;;;;;5102317;28;20235;-75
2021/03/30 10:25:47;;;;;;;1180.15;999.90;;;35.10;42.60;;;;;;5102365;28;20203;-76
2021/03/30 10:28:24;;;;;;;1169.57;999.90;;;35.10;42.20;;;;;;5104858;28;20524;-75
2021/03/30 10:30:55;;;;;;;1167.57;999.90;;;34.60;42.30;;;;;;5104777;28;20223;-75
2021/03/30 10:33:33;;;;;;;1165.85;999.90;;;34.50;42.00;;;;;;5106290;28;20200;-75
2021/03/30 10:36:00;;;;;;;1168.65;999.90;;;34.00;42.70;;;;;;5105127;28;20205;-75
2021/03/30 10:38:28;;;;;;;1164.00;999.90;;;33.90;42.40;;;;;;5109205;28;20209;-75
2021/03/30 10:41:04;;;;;;;1170.78;999.90;;;33.60;43.30;;;;;;5105312;28;20212;-75
2021/03/30 10:43:31;;;;;;;1156.82;999.90;;;33.30;44.70;;;;;;5102012;28;20224;-75
2021/03/30 10:45:58;;;;;;;1154.97;999.90;;;33.50;42.70;;;;;;5102107;28;20211;-75
2021/03/30 10:48:24;;;;;;;1150.82;999.90;;;33.60;42.80;;;;;;5102182;28;20245;-75
2021/03/30 10:50:53;;;;;;;1144.07;999.90;;;33.80;42.70;;;;;;5108651;28;20214;-75
2021/03/30 10:53:20;;;;;;;1162.40;999.90;;;33.70;42.10;;;;;;5107020;28;20206;-75
2021/03/30 10:55:48;;;;;;;1148.57;999.90;;;33.50;42.00;;;;;;5102471;28;20265;-75
2021/03/30 10:58:16;;;;;;;1139.72;999.90;;;33.30;41.90;;;;;;5106179;28;20204;-75
2021/03/30 11:00:43;;;;;;;1135.43;999.90;;;32.90;42.40;;;;;;5101920;28;20205;-75
2021/03/30 11:03:09;;;;;;;1128.68;999.90;;;32.70;42.30;;;;;;5114802;28;20230;-76
2021/03/30 11:05:37;;;;;;;1114.55;999.90;;;32.90;42.80;;;;;;5110109;28;20204;-76
2021/03/30 11:08:03;;;;;;;1117.32;999.90;;;32.90;41.80;;;;;;5105800;28;20546;-76
2021/03/30 11:10:32;;;;;;;1100.47;999.90;;;32.30;42.00;;;;;;5101600;28;20199;-76
2021/03/30 11:13:00;;;;;;;1090.93;998.45;;;31.80;42.30;;;;;;5100673;28;20210;-76
2021/03/30 11:15:26;;;;;;;1072.80;987.47;;;30.80;42.60;;;;;;5092591;28;20339;-75
2021/03/30 11:17:53;;;;;;;1067.25;982.33;;;29.50;43.50;;;;;;5087907;28;20264;-76
2021/03/30 11:20:20;;;;;;;1034.72;950.97;;;28.40;44.30;;;;;;5094439;28;20201;-75
2021/03/30 11:22:49;;;;;;;1021.33;938.20;;;27.60;45.60;;;;;;5087774;28;20201;-75
2021/03/30 11:25:15;;;;;;;993.20;911.40;;;27.00;45.40;;;;;;5091555;28;20212;-75
2021/03/30 11:27:46;;;;;;;974.25;892.90;;;26.50;46.40;;;;;;5092295;28;20208;-77
2021/03/30 11:30:17;;;;;;;959.28;878.60;;;26.20;46.00;;;;;;5088053;28;20264;-74
2021/03/30 11:32:48;;;;;;;947.60;867.10;;;25.80;45.50;;;;;;5093392;28;20211;-74
2021/03/30 11:35:16;;;;;;;953.70;873.22;;;25.50;46.00;;;;;;5088259;28;20231;-75
2021/03/30 11:37:49;;;;;;;912.22;832.90;;;25.30;46.70;;;;;;5087681;28;20227;-75
2021/03/30 11:40:16;;;;;;;887.50;809.35;;;25.00;46.90;;;;;;5087323;28;20199;-75
2021/03/30 11:42:43;;;;;;;886.63;808.67;;;24.80;47.20;;;;;;5087686;28;20230;-76
2021/03/30 11:45:10;;;;;;;898.13;820.25;;;24.50;46.00;;;;;;5091701;28;20224;-75
2021/03/30 11:47:38;;;;;;;892.10;814.08;;;24.40;44.50;;;;;;5093549;28;20199;-75
2021/03/30 11:50:06;;;;;;;888.63;810.47;;;24.20;46.20;;;;;;5090048;28;20273;-75
2021/03/30 11:52:33;;;;;;;852.65;775.72;;;24.00;47.60;;;;;;5100876;28;20202;-75
2021/03/30 11:55:00;;;;;;;856.33;778.60;;;23.80;48.10;;;;;;5092509;28;20209;-74
2021/03/30 11:57:27;;;;;;;1101.38;999.90;;;23.70;47.80;;;;;;5091151;28;20459;-73
2021/03/30 11:59:53;;;;;;;873.55;795.75;;;23.60;48.70;;;;;;5090966;28;20208;-73
2021/03/30 12:02:20;;;;;;;845.78;768.97;;;23.50;47.30;;;;;;5090952;28;20228;-73
2021/03/30 12:04:47;;;;;;;841.78;764.08;;;23.40;47.30;;;;;;5090521;28;20242;-74
2021/03/30 12:07:14;;;;;;;823.15;746.75;;;23.40;48.50;;;;;;5086537;28;20213;-73
2021/03/30 12:09:40;;;;;;;832.95;755.95;;;23.50;48.20;;;;;;5089751;28;20221;-74
2021/03/30 12:12:08;;;;;;;848.42;771.42;;;23.40;47.60;;;;;;5091909;28;20196;-73
2021/03/30 12:14:34;;;;;;;846.30;769.72;;;23.30;47.90;;;;;;5091664;28;20213;-73
2021/03/30 12:17:01;;;;;;;814.97;739.40;;;23.30;48.00;;;;;;5096290;28;20205;-75
2021/03/30 12:19:27;;;;;;;827.50;751.45;;;23.20;47.20;;;;;;5092638;28;20205;-75
2021/03/30 12:21:54;;;;;;;827.20;750.95;;;23.10;48.40;;;;;;5089259;28;20212;-74
2021/03/30 12:24:21;;;;;;;832.80;756.60;;;23.20;47.60;;;;;;5093308;28;20256;-74
2021/03/30 12:26:48;;;;;;;833.78;757.25;;;23.20;47.50;;;;;;5092162;28;20209;-73
2021/03/30 12:29:14;;;;;;;821.60;745.55;;;23.20;47.50;;;;;;5089576;28;20209;-76